CheckWX is a tool to help pilots better visualize weather data.  It is not intended as a substitute for an official pre-flight weather briefing.

00:38:32 UTC

5C1 METAR
Boerne Stage Field Airport
San Antonio, Texas, USA
Current

24 mins ago

K5C1 210015Z AUTO 19003KT 10SM CLR 24/09 A2998 RMK AO1
Observed
Apr-21 @ 00:15 UTC
Wind
  • 190° at 3 KTS
Visibility
10 SM
Flight Rules
VFR
Cloud Levels
  • Clear skies
Temperature
24°C / 75°F
Dewpoint
C / 48°F
Humidity
39%
Altimeter
29.98" Hg
Pressure
1015.22 hPa
Previous

44 mins ago

K5C1 202355Z AUTO 17005KT 10SM CLR 25/09 A2999 RMK AO1
Observed
Apr-20 @ 23:55 UTC
Wind
  • 170° at 5 KTS
Visibility
10 SM
Flight Rules
VFR
Cloud Levels
  • Clear skies
Temperature
25°C / 77°F
Dewpoint
C / 48°F
Humidity
36%
Altimeter
29.99" Hg
Pressure
1015.62 hPa
Previous

1 hour ago

K5C1 202335Z AUTO 17007KT 10SM CLR 25/09 A2999 RMK AO1
Observed
Apr-20 @ 23:35 UTC
Wind
  • 170° at 7 KTS
Visibility
10 SM
Flight Rules
VFR
Cloud Levels
  • Clear skies
Temperature
25°C / 77°F
Dewpoint
C / 48°F
Humidity
36%
Altimeter
29.99" Hg
Pressure
1015.62 hPa